Time;durP1;ratioP1;P1;durP2;ratioP2;P2;SDS_P1;SDS_P2;PMS_P1;PMS_P2;Temp;Humidity;BMP_temperature;BMP_pressure;BME280_temperature;BME280_humidity;BME280_pressure;Samples;Min_cycle;Max_cycle;Signal;HPM_P1;HPM_P2
2022/05/30 00:00:50;;;;;;;1.07;0.70;;;;;;;;;;4990341;28;20209;-58
2022/05/30 00:03:19;;;;;;;0.60;0.60;;;;;;;;;;4990691;28;20584;-58
2022/05/30 00:05:47;;;;;;;0.60;0.60;;;;;;;;;;4990782;28;20291;-58
2022/05/30 00:08:16;;;;;;;0.77;0.60;;;;;;;;;;4990504;28;20206;-61
2022/05/30 00:10:43;;;;;;;0.80;0.80;;;;;;;;;;4990679;28;20210;-58
2022/05/30 00:13:11;;;;;;;0.70;0.70;;;;;;;;;;4989762;28;20221;-58
2022/05/30 00:15:39;;;;;;;0.80;0.80;;;;;;;;;;4990408;28;20205;-59
2022/05/30 00:18:07;;;;;;;0.67;0.67;;;;;;;;;;4990593;28;20238;-61
2022/05/30 00:20:34;;;;;;;0.60;0.60;;;;;;;;;;4990715;28;20218;-58
2022/05/30 00:23:01;;;;;;;0.77;0.77;;;;;;;;;;4990465;28;20217;-59
2022/05/30 00:25:30;;;;;;;0.93;0.93;;;;;;;;;;4990253;28;20225;-59
2022/05/30 00:27:57;;;;;;;1.70;0.80;;;;;;;;;;4990288;28;20747;-59
2022/05/30 00:30:24;;;;;;;1.10;1.00;;;;;;;;;;4990067;28;20308;-59
2022/05/30 00:32:51;;;;;;;0.67;0.67;;;;;;;;;;4989779;28;20217;-59
2022/05/30 00:35:18;;;;;;;1.90;0.80;;;;;;;;;;4990816;28;20214;-59
2022/05/30 00:37:45;;;;;;;0.70;0.70;;;;;;;;;;4989983;28;20216;-59
2022/05/30 00:40:13;;;;;;;0.70;0.70;;;;;;;;;;4990556;28;20232;-58
2022/05/30 00:42:41;;;;;;;0.67;0.67;;;;;;;;;;4989274;28;20651;-59
2022/05/30 00:45:09;;;;;;;0.60;0.60;;;;;;;;;;4989725;28;20233;-58
2022/05/30 00:47:37;;;;;;;0.60;0.60;;;;;;;;;;4989635;28;20216;-58
2022/05/30 00:50:05;;;;;;;1.17;0.60;;;;;;;;;;4990149;28;20224;-59
2022/05/30 00:52:34;;;;;;;0.77;0.70;;;;;;;;;;4989879;28;20573;-59
2022/05/30 00:55:04;;;;;;;0.60;0.60;;;;;;;;;;4990055;28;20228;-59
2022/05/30 00:57:33;;;;;;;2.53;1.00;;;;;;;;;;4990091;28;20321;-59
2022/05/30 01:00:02;;;;;;;0.63;0.63;;;;;;;;;;4988609;28;20209;-59
2022/05/30 01:02:31;;;;;;;0.70;0.70;;;;;;;;;;4988351;28;20221;-58
2022/05/30 01:07:44;;;;;;;4.53;0.83;;;;;;;;;;4988247;28;20212;-58
2022/05/30 01:10:12;;;;;;;0.97;0.80;;;;;;;;;;4987647;28;20209;-59
2022/05/30 01:12:40;;;;;;;0.77;0.73;;;;;;;;;;4987836;28;20680;-59
2022/05/30 01:15:11;;;;;;;0.63;0.63;;;;;;;;;;4988338;28;20202;-59
2022/05/30 01:17:43;;;;;;;0.80;0.80;;;;;;;;;;4988152;28;20220;-60
2022/05/30 01:20:17;;;;;;;0.60;0.60;;;;;;;;;;4987674;28;20209;-59
2022/05/30 01:22:53;;;;;;;0.70;0.70;;;;;;;;;;4986602;28;20668;-59
2022/05/30 01:25:38;;;;;;;0.93;0.80;;;;;;;;;;4986971;28;20271;-60
2022/05/30 01:28:07;;;;;;;0.90;0.90;;;;;;;;;;4940434;28;20265;-60
2022/05/30 01:30:37;;;;;;;0.70;0.70;;;;;;;;;;4984237;28;20322;-60
2022/05/30 01:33:04;;;;;;;0.87;0.87;;;;;;;;;;4989103;28;20559;-60
2022/05/30 01:35:32;;;;;;;0.70;0.70;;;;;;;;;;4989655;28;20718;-59
2022/05/30 01:37:59;;;;;;;1.70;0.80;;;;;;;;;;4989244;28;20209;-60
2022/05/30 01:40:26;;;;;;;0.67;0.67;;;;;;;;;;4988728;28;20206;-60
2022/05/30 01:42:53;;;;;;;0.60;0.60;;;;;;;;;;4988860;28;20841;-59
2022/05/30 01:45:20;;;;;;;0.67;0.67;;;;;;;;;;4988837;28;20304;-59
2022/05/30 01:47:49;;;;;;;0.70;0.70;;;;;;;;;;4989230;28;20214;-61
2022/05/30 01:50:16;;;;;;;0.70;0.70;;;;;;;;;;4989327;28;20221;-59
2022/05/30 01:52:43;;;;;;;0.70;0.70;;;;;;;;;;4988827;28;20218;-59
2022/05/30 01:55:10;;;;;;;0.80;0.80;;;;;;;;;;4988376;28;20581;-60
2022/05/30 01:57:37;;;;;;;0.80;0.80;;;;;;;;;;4979292;28;20706;-60
2022/05/30 02:00:05;;;;;;;0.80;0.80;;;;;;;;;;4988719;28;20210;-60
2022/05/30 02:02:32;;;;;;;1.07;1.07;;;;;;;;;;4988457;28;20241;-60
2022/05/30 02:05:00;;;;;;;1.13;0.73;;;;;;;;;;4988825;28;20249;-60
2022/05/30 02:07:28;;;;;;;0.80;0.80;;;;;;;;;;4988352;28;20565;-59
2022/05/30 02:09:55;;;;;;;0.67;0.67;;;;;;;;;;4985086;28;20210;-59
2022/05/30 02:12:22;;;;;;;0.90;0.90;;;;;;;;;;4988588;28;20259;-60
2022/05/30 02:14:49;;;;;;;1.30;1.20;;;;;;;;;;4988740;28;20209;-60
2022/05/30 02:17:15;;;;;;;0.87;0.87;;;;;;;;;;4988571;28;20306;-60
2022/05/30 02:19:43;;;;;;;0.70;0.70;;;;;;;;;;4988112;28;20213;-60
2022/05/30 02:22:13;;;;;;;0.87;0.87;;;;;;;;;;4988841;28;20209;-59
2022/05/30 02:24:40;;;;;;;1.33;0.60;;;;;;;;;;4988063;28;20690;-59
2022/05/30 02:27:07;;;;;;;0.70;0.70;;;;;;;;;;4988317;28;21000;-60
2022/05/30 02:29:34;;;;;;;0.77;0.70;;;;;;;;;;4987734;28;20681;-60
2022/05/30 02:32:01;;;;;;;0.90;0.90;;;;;;;;;;4988358;28;20206;-59
2022/05/30 02:37:15;;;;;;;0.80;0.80;;;;;;;;;;4988222;28;20588;-60
2022/05/30 02:39:42;;;;;;;0.77;0.77;;;;;;;;;;4988541;28;20268;-60
2022/05/30 02:42:09;;;;;;;1.03;0.90;;;;;;;;;;4987855;28;20221;-60
2022/05/30 02:44:37;;;;;;;0.93;0.93;;;;;;;;;;4988187;28;20232;-60
2022/05/30 02:47:04;;;;;;;0.87;0.87;;;;;;;;;;4988330;28;20237;-60
2022/05/30 02:49:31;;;;;;;0.70;0.70;;;;;;;;;;4988643;28;20232;-59
2022/05/30 02:51:59;;;;;;;0.77;0.77;;;;;;;;;;4988385;28;20217;-60
2022/05/30 02:54:27;;;;;;;1.90;1.00;;;;;;;;;;4988065;28;20225;-60
2022/05/30 02:56:55;;;;;;;1.10;1.00;;;;;;;;;;4988176;28;20211;-60
2022/05/30 02:59:23;;;;;;;1.10;1.10;;;;;;;;;;4988260;28;20206;-60
2022/05/30 03:01:50;;;;;;;0.97;0.97;;;;;;;;;;4987900;28;20213;-60
2022/05/30 03:04:18;;;;;;;0.73;0.73;;;;;;;;;;4988083;28;20863;-60
2022/05/30 03:06:45;;;;;;;0.80;0.80;;;;;;;;;;4988343;28;20240;-59
2022/05/30 03:09:12;;;;;;;1.07;1.07;;;;;;;;;;4991356;28;20205;-60
2022/05/30 03:11:41;;;;;;;1.43;0.87;;;;;;;;;;4992551;28;21291;-59
2022/05/30 03:14:08;;;;;;;0.80;0.80;;;;;;;;;;4992248;28;20701;-59
2022/05/30 03:16:35;;;;;;;0.70;0.70;;;;;;;;;;4992788;28;20272;-60
2022/05/30 03:19:02;;;;;;;0.90;0.90;;;;;;;;;;4992159;28;20209;-60
2022/05/30 03:21:29;;;;;;;0.80;0.80;;;;;;;;;;4992433;28;20223;-60
2022/05/30 03:23:56;;;;;;;0.87;0.87;;;;;;;;;;4991961;28;20209;-60
2022/05/30 03:26:24;;;;;;;1.00;1.00;;;;;;;;;;4992420;28;20236;-60
2022/05/30 03:28:52;;;;;;;0.90;0.90;;;;;;;;;;4992059;28;20221;-60
2022/05/30 03:31:19;;;;;;;0.80;0.80;;;;;;;;;;4991868;28;20232;-60
2022/05/30 03:33:46;;;;;;;0.83;0.83;;;;;;;;;;4992123;28;20219;-59
2022/05/30 03:36:14;;;;;;;1.00;1.00;;;;;;;;;;4992407;28;20202;-59
2022/05/30 03:38:41;;;;;;;0.90;0.90;;;;;;;;;;4991964;28;20691;-59
2022/05/30 03:41:08;;;;;;;1.17;1.07;;;;;;;;;;4991605;28;20288;-60
2022/05/30 03:43:35;;;;;;;0.97;0.97;;;;;;;;;;4991817;28;20212;-59
2022/05/30 03:46:04;;;;;;;0.80;0.80;;;;;;;;;;4991995;28;20237;-60
2022/05/30 03:48:31;;;;;;;1.03;0.90;;;;;;;;;;4992271;28;20225;-60
2022/05/30 03:50:58;;;;;;;0.93;0.93;;;;;;;;;;4991908;28;20232;-60
2022/05/30 03:53:25;;;;;;;1.10;1.10;;;;;;;;;;4991541;28;20664;-60
2022/05/30 03:55:52;;;;;;;1.80;1.17;;;;;;;;;;4991808;28;20217;-60
2022/05/30 03:58:19;;;;;;;1.00;1.00;;;;;;;;;;4991815;28;20209;-60
2022/05/30 04:00:46;;;;;;;1.13;1.13;;;;;;;;;;4991129;28;20743;-60
2022/05/30 04:03:15;;;;;;;1.10;1.10;;;;;;;;;;4991609;28;20209;-60
2022/05/30 04:05:42;;;;;;;1.10;1.10;;;;;;;;;;4990933;28;20223;-60
2022/05/30 04:08:09;;;;;;;0.93;0.93;;;;;;;;;;4991451;28;20206;-60
2022/05/30 04:10:36;;;;;;;0.80;0.80;;;;;;;;;;4990224;28;20309;-60
2022/05/30 04:13:05;;;;;;;0.97;0.97;;;;;;;;;;4991302;28;20217;-60
2022/05/30 04:15:32;;;;;;;1.00;1.00;;;;;;;;;;4991427;28;20221;-60
2022/05/30 04:17:59;;;;;;;1.40;1.10;;;;;;;;;;4991541;28;20206;-59
2022/05/30 04:20:27;;;;;;;1.00;1.00;;;;;;;;;;4990006;28;20216;-59
2022/05/30 04:22:54;;;;;;;1.03;1.03;;;;;;;;;;4990748;28;20677;-60
2022/05/30 04:25:22;;;;;;;1.10;1.10;;;;;;;;;;4990919;28;20218;-60
2022/05/30 04:27:49;;;;;;;0.80;0.80;;;;;;;;;;4976185;28;20237;-60
2022/05/30 04:30:16;;;;;;;0.93;0.93;;;;;;;;;;4991035;28;20241;-59
2022/05/30 04:32:43;;;;;;;0.90;0.90;;;;;;;;;;4989434;28;20692;-60
2022/05/30 04:35:11;;;;;;;0.70;0.70;;;;;;;;;;4982001;28;20244;-59
2022/05/30 04:37:39;;;;;;;1.53;1.43;;;;;;;;;;4991277;28;20209;-59
2022/05/30 04:40:07;;;;;;;1.20;1.20;;;;;;;;;;4990964;28;20573;-60
2022/05/30 04:42:34;;;;;;;1.40;1.30;;;;;;;;;;4991070;28;20221;-60
2022/05/30 04:45:01;;;;;;;1.37;1.37;;;;;;;;;;4990753;28;20217;-61
2022/05/30 04:47:28;;;;;;;1.67;1.63;;;;;;;;;;4991415;28;20233;-61
2022/05/30 04:49:55;;;;;;;1.30;1.30;;;;;;;;;;4990801;28;20214;-60
2022/05/30 04:52:22;;;;;;;1.40;1.30;;;;;;;;;;4991105;28;20220;-60
2022/05/30 04:54:50;;;;;;;1.60;1.50;;;;;;;;;;4987295;28;20213;-59
2022/05/30 04:57:17;;;;;;;0.93;0.93;;;;;;;;;;4988919;28;20198;-58
2022/05/30 04:59:44;;;;;;;1.67;1.33;;;;;;;;;;4986531;28;20209;-59
2022/05/30 05:02:12;;;;;;;1.30;1.30;;;;;;;;;;4990606;28;20205;-60
2022/05/30 05:04:40;;;;;;;1.87;1.07;;;;;;;;;;4989970;28;20214;-59
2022/05/30 05:07:07;;;;;;;1.53;1.43;;;;;;;;;;4990170;28;20627;-60
2022/05/30 05:09:41;;;;;;;1.50;1.40;;;;;;;;;;4990032;28;20693;-59
2022/05/30 05:12:10;;;;;;;1.30;1.30;;;;;;;;;;4990190;28;20205;-61
2022/05/30 05:14:37;;;;;;;0.93;0.93;;;;;;;;;;4990388;28;20214;-60
2022/05/30 05:17:06;;;;;;;1.00;1.00;;;;;;;;;;4990661;28;20210;-60
2022/05/30 05:19:33;;;;;;;1.20;1.20;;;;;;;;;;4990153;28;20217;-59
2022/05/30 05:22:00;;;;;;;2.53;1.60;;;;;;;;;;4990678;28;20223;-59
2022/05/30 05:24:27;;;;;;;1.40;1.30;;;;;;;;;;4990089;28;20212;-59
2022/05/30 05:26:55;;;;;;;0.93;0.93;;;;;;;;;;4989557;28;20241;-59
2022/05/30 05:29:23;;;;;;;1.30;1.30;;;;;;;;;;4986524;28;20289;-59
2022/05/30 05:31:51;;;;;;;1.27;1.27;;;;;;;;;;4983152;28;20676;-59
2022/05/30 05:34:18;;;;;;;1.47;1.37;;;;;;;;;;4985755;28;20229;-59
2022/05/30 05:36:47;;;;;;;1.43;1.30;;;;;;;;;;4989917;28;20688;-60
2022/05/30 05:39:16;;;;;;;1.10;1.10;;;;;;;;;;4989977;28;20244;-59
2022/05/30 05:41:44;;;;;;;1.00;0.90;;;;;;;;;;4989234;28;20217;-59
2022/05/30 05:44:11;;;;;;;1.10;1.10;;;;;;;;;;4989422;28;20213;-59
2022/05/30 05:46:40;;;;;;;1.33;1.33;;;;;;;;;;4985190;28;20221;-58
2022/05/30 05:49:09;;;;;;;4.73;2.23;;;;;;;;;;4989497;28;20213;-61
2022/05/30 05:51:37;;;;;;;1.70;1.60;;;;;;;;;;4989261;28;20205;-61
2022/05/30 05:54:04;;;;;;;1.47;1.47;;;;;;;;;;4987677;28;20585;-61
2022/05/30 05:56:32;;;;;;;1.30;1.30;;;;;;;;;;4987674;28;20209;-60
2022/05/30 05:58:59;;;;;;;1.40;1.40;;;;;;;;;;4989371;28;20236;-61
2022/05/30 06:01:27;;;;;;;1.33;1.23;;;;;;;;;;4989162;28;20248;-61
2022/05/30 06:03:56;;;;;;;2.73;1.20;;;;;;;;;;4989076;28;20202;-62
2022/05/30 06:06:26;;;;;;;1.70;1.30;;;;;;;;;;4989190;28;20340;-61
2022/05/30 06:08:53;;;;;;;1.33;1.33;;;;;;;;;;4989184;28;20596;-62
2022/05/30 06:11:21;;;;;;;1.63;1.53;;;;;;;;;;4988974;28;20206;-65
2022/05/30 06:13:49;;;;;;;1.40;1.30;;;;;;;;;;4988314;28;20202;-60
2022/05/30 06:16:17;;;;;;;1.30;1.30;;;;;;;;;;4976940;28;20214;-60
2022/05/30 06:18:44;;;;;;;1.93;1.40;;;;;;;;;;4985537;28;20210;-61
2022/05/30 06:21:12;;;;;;;2.00;1.90;;;;;;;;;;4981253;28;20215;-60
2022/05/30 06:23:39;;;;;;;2.63;1.83;;;;;;;;;;4969306;28;20249;-60
2022/05/30 06:26:06;;;;;;;1.92;1.83;;;;;;;;;;4977120;28;20229;-61
2022/05/30 06:28:34;;;;;;;1.90;1.73;;;;;;;;;;4977102;28;20207;-61
2022/05/30 06:31:01;;;;;;;2.75;1.75;;;;;;;;;;4969433;28;20246;-60
2022/05/30 06:33:28;;;;;;;1.83;1.73;;;;;;;;;;4982747;28;20213;-60
2022/05/30 06:35:55;;;;;;;1.60;1.50;;;;;;;;;;4988174;28;20220;-61
2022/05/30 06:38:24;;;;;;;1.30;1.17;;;;;;;;;;4987884;28;20633;-62
2022/05/30 06:40:51;;;;;;;1.13;1.13;;;;;;;;;;4988195;28;20233;-64
2022/05/30 06:43:18;;;;;;;1.13;1.00;;;;;;;;;;4987770;28;20225;-60
2022/05/30 06:45:48;;;;;;;1.90;1.40;;;;;;;;;;4988217;28;20284;-61
2022/05/30 06:48:16;;;;;;;0.90;0.90;;;;;;;;;;4988299;28;20614;-62
2022/05/30 06:50:43;;;;;;;1.15;1.02;;;;;;;;;;4988026;28;20225;-61
2022/05/30 06:53:10;;;;;;;0.97;0.97;;;;;;;;;;4987777;28;20221;-62
2022/05/30 06:55:38;;;;;;;1.40;1.02;;;;;;;;;;4987999;28;20743;-60
2022/05/30 06:58:15;;;;;;;1.17;0.98;;;;;;;;;;4987850;28;20664;-61
2022/05/30 07:00:44;;;;;;;0.80;0.80;;;;;;;;;;4987936;28;20216;-61
2022/05/30 07:03:12;;;;;;;1.23;1.20;;;;;;;;;;4982009;28;20734;-61
2022/05/30 07:05:40;;;;;;;2.28;1.00;;;;;;;;;;4968585;28;20231;-62
2022/05/30 07:08:07;;;;;;;1.00;1.00;;;;;;;;;;4974688;28;20631;-61
2022/05/30 07:10:35;;;;;;;1.10;1.05;;;;;;;;;;4987801;28;20726;-61
2022/05/30 07:13:04;;;;;;;1.30;0.65;;;;;;;;;;4987831;28;20221;-60
2022/05/30 07:15:31;;;;;;;1.58;1.10;;;;;;;;;;4987305;28;20271;-61
2022/05/30 07:17:59;;;;;;;1.33;1.20;;;;;;;;;;4987749;28;20566;-61
2022/05/30 07:20:26;;;;;;;1.85;1.00;;;;;;;;;;4987555;28;20301;-61
2022/05/30 07:22:53;;;;;;;1.00;0.80;;;;;;;;;;4968317;28;20234;-61
2022/05/30 07:25:20;;;;;;;3.20;1.00;;;;;;;;;;4971809;28;20210;-61
2022/05/30 07:27:47;;;;;;;1.50;0.93;;;;;;;;;;4976324;28;20234;-59
2022/05/30 07:30:16;;;;;;;1.48;0.90;;;;;;;;;;4968440;28;20246;-59
2022/05/30 07:32:43;;;;;;;2.17;1.00;;;;;;;;;;4985969;28;20707;-59
2022/05/30 07:35:10;;;;;;;1.08;0.95;;;;;;;;;;4987607;28;20220;-60
2022/05/30 07:37:42;;;;;;;0.80;0.80;;;;;;;;;;4987560;28;20431;-59
2022/05/30 07:40:12;;;;;;;2.25;0.63;;;;;;;;;;4984805;28;20213;-59
2022/05/30 07:42:39;;;;;;;0.95;0.70;;;;;;;;;;4987578;28;20505;-59
2022/05/30 07:45:06;;;;;;;0.77;0.77;;;;;;;;;;4968294;28;20209;-59
2022/05/30 07:47:35;;;;;;;1.10;0.70;;;;;;;;;;4977407;28;20226;-60
2022/05/30 07:50:03;;;;;;;0.50;0.50;;;;;;;;;;4987169;28;20209;-60
2022/05/30 07:52:30;;;;;;;0.63;0.50;;;;;;;;;;4985733;28;20297;-59
2022/05/30 07:54:57;;;;;;;0.70;0.70;;;;;;;;;;4976895;28;20297;-59
2022/05/30 08:00:06;;;;;;;1.10;0.93;;;;;;;;;;4989621;28;20260;-57
2022/05/30 08:02:34;;;;;;;0.60;0.60;;;;;;;;;;4990831;28;20260;-61
2022/05/30 08:05:01;;;;;;;0.70;0.70;;;;;;;;;;4990879;28;20276;-60
2022/05/30 08:07:28;;;;;;;0.73;0.73;;;;;;;;;;4988084;28;20217;-60
2022/05/30 08:09:55;;;;;;;0.80;0.80;;;;;;;;;;4982062;28;20256;-59
2022/05/30 08:12:23;;;;;;;1.10;0.80;;;;;;;;;;4990048;28;20206;-59
2022/05/30 08:14:50;;;;;;;2.15;0.80;;;;;;;;;;4990771;28;20216;-59
2022/05/30 08:17:17;;;;;;;0.80;0.80;;;;;;;;;;4990583;28;20973;-59
2022/05/30 08:19:46;;;;;;;0.60;0.60;;;;;;;;;;4990765;28;20210;-59
2022/05/30 08:22:13;;;;;;;3.17;0.90;;;;;;;;;;4989689;28;20300;-59
2022/05/30 08:24:42;;;;;;;0.98;0.90;;;;;;;;;;4990527;28;20279;-59
2022/05/30 08:27:09;;;;;;;0.80;0.80;;;;;;;;;;4989970;28;20291;-58
2022/05/30 08:29:36;;;;;;;0.50;0.50;;;;;;;;;;4990329;28;20807;-59
2022/05/30 08:32:04;;;;;;;0.73;0.73;;;;;;;;;;4990250;28;20280;-59
2022/05/30 08:34:31;;;;;;;0.93;0.93;;;;;;;;;;4990613;28;20222;-59
2022/05/30 08:37:02;;;;;;;1.65;0.73;;;;;;;;;;4988644;28;20228;-59
2022/05/30 08:42:13;;;;;;;0.82;0.82;;;;;;;;;;4990233;28;20217;-58
2022/05/30 08:44:41;;;;;;;1.10;0.57;;;;;;;;;;4990889;28;20221;-60
2022/05/30 08:47:08;;;;;;;0.65;0.60;;;;;;;;;;4990442;28;20333;-57
2022/05/30 08:49:36;;;;;;;2.33;0.50;;;;;;;;;;4990388;28;20209;-57
2022/05/30 08:52:25;;;;;;;0.40;0.40;;;;;;;;;;4990645;28;20209;-57
2022/05/30 08:54:59;;;;;;;1.60;0.70;;;;;;;;;;4990224;28;20642;-57
2022/05/30 08:57:30;;;;;;;0.40;0.40;;;;;;;;;;4990478;28;20216;-57
2022/05/30 09:00:04;;;;;;;1.10;0.57;;;;;;;;;;4989600;28;20201;-57
2022/05/30 09:02:33;;;;;;;0.95;0.50;;;;;;;;;;4990269;28;20214;-57
2022/05/30 09:05:01;;;;;;;0.52;0.52;;;;;;;;;;4988032;28;20214;-57
2022/05/30 09:07:32;;;;;;;0.40;0.40;;;;;;;;;;4989126;28;20229;-57
2022/05/30 09:10:03;;;;;;;0.65;0.65;;;;;;;;;;4989779;28;20210;-57
2022/05/30 09:12:32;;;;;;;1.88;0.70;;;;;;;;;;4989598;28;20213;-57
2022/05/30 09:15:02;;;;;;;2.25;0.40;;;;;;;;;;4989728;28;20240;-57
2022/05/30 09:17:31;;;;;;;4.05;0.52;;;;;;;;;;4989558;28;20305;-56
2022/05/30 09:19:58;;;;;;;1.50;0.50;;;;;;;;;;4989368;28;20293;-57
2022/05/30 09:22:26;;;;;;;3.03;0.40;;;;;;;;;;4989264;28;20218;-58
2022/05/30 09:27:39;;;;;;;0.73;0.50;;;;;;;;;;4988918;28;20736;-57
2022/05/30 09:30:08;;;;;;;2.13;0.85;;;;;;;;;;4988880;28;20241;-58
2022/05/30 09:32:38;;;;;;;0.80;0.80;;;;;;;;;;4989055;28;20465;-57
2022/05/30 09:35:24;;;;;;;1.17;0.40;;;;;;;;;;4989078;28;20210;-58
2022/05/30 09:38:04;;;;;;;0.63;0.60;;;;;;;;;;4988942;28;20687;-58
2022/05/30 09:40:38;;;;;;;0.80;0.50;;;;;;;;;;4989067;28;20652;-57
2022/05/30 09:43:07;;;;;;;1.50;0.50;;;;;;;;;;4988617;28;20221;-58
2022/05/30 09:45:34;;;;;;;1.60;0.90;;;;;;;;;;4988840;28;20232;-59
2022/05/30 09:48:01;;;;;;;0.40;0.40;;;;;;;;;;4988956;28;20237;-59
2022/05/30 09:50:28;;;;;;;3.38;0.57;;;;;;;;;;4988877;28;20217;-60
2022/05/30 09:52:56;;;;;;;0.40;0.40;;;;;;;;;;4988614;28;20206;-59
2022/05/30 09:55:32;;;;;;;0.57;0.57;;;;;;;;;;4988607;28;20213;-60
2022/05/30 09:58:01;;;;;;;0.60;0.60;;;;;;;;;;4988699;28;20213;-60
2022/05/30 10:00:34;;;;;;;0.52;0.52;;;;;;;;;;4988324;28;20300;-60
2022/05/30 10:03:03;;;;;;;1.63;0.60;;;;;;;;;;4988891;28;20218;-59
2022/05/30 10:05:32;;;;;;;2.17;0.73;;;;;;;;;;4988811;28;20289;-60
2022/05/30 10:08:01;;;;;;;0.70;0.63;;;;;;;;;;4988444;28;20229;-60
2022/05/30 10:10:31;;;;;;;0.45;0.45;;;;;;;;;;4988660;28;20208;-60
2022/05/30 10:12:59;;;;;;;0.80;0.73;;;;;;;;;;4988518;28;20221;-59
2022/05/30 10:15:30;;;;;;;5.05;0.88;;;;;;;;;;4988456;28;20278;-59
2022/05/30 10:17:58;;;;;;;0.40;0.40;;;;;;;;;;4986961;28;20213;-60
2022/05/30 10:20:27;;;;;;;1.70;0.70;;;;;;;;;;4987465;28;20703;-60
2022/05/30 10:28:55;;;;;;;0.70;0.60;;;;;;;;;;4987298;28;20252;-60
2022/05/30 10:31:37;;;;;;;2.03;0.43;;;;;;;;;;4979866;28;20881;-60
2022/05/30 10:34:14;;;;;;;0.50;0.50;;;;;;;;;;4987543;28;20213;-60
2022/05/30 10:36:46;;;;;;;0.40;0.40;;;;;;;;;;4987487;28;20213;-60
2022/05/30 10:39:18;;;;;;;2.40;0.60;;;;;;;;;;4987721;28;20214;-59
2022/05/30 10:41:48;;;;;;;1.33;0.40;;;;;;;;;;4987488;28;20220;-60
2022/05/30 10:44:20;;;;;;;0.68;0.68;;;;;;;;;;4987625;28;20296;-59
2022/05/30 10:46:53;;;;;;;2.22;0.70;;;;;;;;;;4987590;28;20320;-60
2022/05/30 10:49:22;;;;;;;0.90;0.88;;;;;;;;;;4987138;28;20245;-57
2022/05/30 10:51:54;;;;;;;0.77;0.40;;;;;;;;;;4987148;28;20723;-57
2022/05/30 10:54:23;;;;;;;0.63;0.63;;;;;;;;;;4987540;28;20209;-57
2022/05/30 10:56:57;;;;;;;0.50;0.50;;;;;;;;;;4987495;28;20213;-58
2022/05/30 10:59:28;;;;;;;1.48;0.93;;;;;;;;;;4987699;28;20313;-59
2022/05/30 11:01:58;;;;;;;0.70;0.50;;;;;;;;;;4987522;28;20217;-58
2022/05/30 11:04:34;;;;;;;0.40;0.40;;;;;;;;;;4983822;28;20565;-58
2022/05/30 11:07:07;;;;;;;2.15;0.60;;;;;;;;;;4974903;28;20878;-56
2022/05/30 11:09:35;;;;;;;2.63;0.65;;;;;;;;;;4968163;28;20218;-58
2022/05/30 11:12:05;;;;;;;0.90;0.40;;;;;;;;;;4973070;28;20221;-58
2022/05/30 11:14:36;;;;;;;0.57;0.57;;;;;;;;;;4987229;28;20221;-58
2022/05/30 11:17:08;;;;;;;0.70;0.70;;;;;;;;;;4969091;28;20329;-58
2022/05/30 11:19:38;;;;;;;1.30;0.70;;;;;;;;;;4967754;28;20210;-58
2022/05/30 11:22:11;;;;;;;1.10;0.57;;;;;;;;;;4967611;28;20210;-57
2022/05/30 11:24:38;;;;;;;1.10;0.50;;;;;;;;;;4968052;28;20210;-58
2022/05/30 11:27:15;;;;;;;1.55;0.50;;;;;;;;;;4967471;28;20234;-58
2022/05/30 11:29:55;;;;;;;0.43;0.43;;;;;;;;;;4969917;28;20238;-57
2022/05/30 11:32:36;;;;;;;0.73;0.50;;;;;;;;;;4971282;28;20607;-57
2022/05/30 11:35:06;;;;;;;0.47;0.47;;;;;;;;;;4971558;28;20676;-57
2022/05/30 11:37:49;;;;;;;0.70;0.70;;;;;;;;;;4971592;28;20210;-57
2022/05/30 11:40:22;;;;;;;0.60;0.60;;;;;;;;;;4971739;28;20210;-58
2022/05/30 11:42:54;;;;;;;1.10;0.50;;;;;;;;;;4983365;28;20213;-57
2022/05/30 11:45:31;;;;;;;0.43;0.43;;;;;;;;;;4990764;28;20213;-58
2022/05/30 11:48:05;;;;;;;0.50;0.50;;;;;;;;;;4990732;28;20256;-57
2022/05/30 11:50:34;;;;;;;2.30;0.60;;;;;;;;;;4991012;28;20220;-57
2022/05/30 11:53:09;;;;;;;1.30;0.68;;;;;;;;;;4990899;28;20224;-58
2022/05/30 11:55:41;;;;;;;1.48;0.60;;;;;;;;;;4990838;28;20229;-57
2022/05/30 11:58:11;;;;;;;0.47;0.47;;;;;;;;;;4990311;28;20719;-57
2022/05/30 12:00:41;;;;;;;0.50;0.50;;;;;;;;;;4990473;28;20225;-57
2022/05/30 12:03:35;;;;;;;0.70;0.70;;;;;;;;;;4990245;28;20434;-57
2022/05/30 12:06:14;;;;;;;0.55;0.50;;;;;;;;;;4944715;28;20591;-58
2022/05/30 12:08:48;;;;;;;0.50;0.50;;;;;;;;;;4989908;28;20619;-58
2022/05/30 12:11:24;;;;;;;0.50;0.50;;;;;;;;;;4990497;28;20217;-58
2022/05/30 12:13:57;;;;;;;0.60;0.52;;;;;;;;;;4970807;28;20214;-58
2022/05/30 12:16:35;;;;;;;0.50;0.50;;;;;;;;;;4970737;28;20218;-57
2022/05/30 12:25:01;;;;;;;0.40;0.40;;;;;;;;;;4949973;28;20264;-58
2022/05/30 12:27:35;;;;;;;0.60;0.60;;;;;;;;;;4970296;28;20725;-57
2022/05/30 12:30:03;;;;;;;0.60;0.60;;;;;;;;;;4970592;28;20867;-56
2022/05/30 12:32:33;;;;;;;0.60;0.60;;;;;;;;;;4970799;28;20221;-56
2022/05/30 12:35:16;;;;;;;0.68;0.68;;;;;;;;;;4970785;28;20221;-56
2022/05/30 12:37:48;;;;;;;0.70;0.70;;;;;;;;;;4970656;28;20694;-56
2022/05/30 12:40:32;;;;;;;1.00;0.60;;;;;;;;;;4969683;28;20222;-57
2022/05/30 12:43:03;;;;;;;1.05;0.77;;;;;;;;;;4975961;28;20210;-56
2022/05/30 12:45:37;;;;;;;1.77;0.70;;;;;;;;;;4970641;28;20213;-57
2022/05/30 12:48:12;;;;;;;2.33;0.77;;;;;;;;;;4970218;28;20241;-58
2022/05/30 12:50:44;;;;;;;0.57;0.57;;;;;;;;;;4970078;28;20210;-58
2022/05/30 12:53:13;;;;;;;0.98;0.82;;;;;;;;;;4970074;28;20305;-58
2022/05/30 12:55:41;;;;;;;0.80;0.80;;;;;;;;;;4969998;28;20234;-58
2022/05/30 12:58:09;;;;;;;0.50;0.50;;;;;;;;;;4969458;28;20657;-57
2022/05/30 13:00:51;;;;;;;1.00;0.60;;;;;;;;;;4970205;28;20217;-58
2022/05/30 13:03:32;;;;;;;0.60;0.60;;;;;;;;;;4970195;28;20211;-58
2022/05/30 13:06:02;;;;;;;0.50;0.50;;;;;;;;;;4969985;28;20238;-58
2022/05/30 13:08:48;;;;;;;0.40;0.40;;;;;;;;;;4970128;28;20226;-58
2022/05/30 13:11:23;;;;;;;0.77;0.50;;;;;;;;;;4975711;28;20209;-58
2022/05/30 13:13:53;;;;;;;0.65;0.65;;;;;;;;;;4980023;28;20711;-59
2022/05/30 13:16:28;;;;;;;0.82;0.60;;;;;;;;;;4982461;28;20208;-59
2022/05/30 13:18:56;;;;;;;0.60;0.60;;;;;;;;;;4989437;28;20703;-56
2022/05/30 13:21:25;;;;;;;1.00;0.77;;;;;;;;;;4989314;28;20560;-56
2022/05/30 13:23:52;;;;;;;3.03;2.25;;;;;;;;;;4989208;28;20210;-57
2022/05/30 13:26:20;;;;;;;3.15;1.85;;;;;;;;;;4969916;28;20237;-57
2022/05/30 13:28:49;;;;;;;1.45;1.13;;;;;;;;;;4988193;28;20649;-58
2022/05/30 13:31:17;;;;;;;2.15;1.45;;;;;;;;;;4989133;28;20233;-60
2022/05/30 13:33:50;;;;;;;0.88;0.88;;;;;;;;;;4988704;28;20202;-58
2022/05/30 13:36:18;;;;;;;1.70;1.58;;;;;;;;;;4989269;28;20231;-59
2022/05/30 13:38:48;;;;;;;0.60;0.60;;;;;;;;;;4988630;28;20673;-59
2022/05/30 13:41:17;;;;;;;1.02;0.70;;;;;;;;;;4981797;28;20626;-59
2022/05/30 13:43:46;;;;;;;0.50;0.50;;;;;;;;;;4986169;28;20583;-59
2022/05/30 13:46:13;;;;;;;0.40;0.40;;;;;;;;;;4977379;28;20594;-59
2022/05/30 13:48:40;;;;;;;0.77;0.77;;;;;;;;;;4977784;28;20230;-58
2022/05/30 13:51:10;;;;;;;0.38;0.38;;;;;;;;;;4984129;28;20206;-59
2022/05/30 13:53:38;;;;;;;0.50;0.50;;;;;;;;;;4983937;28;20510;-59
2022/05/30 13:56:09;;;;;;;0.60;0.60;;;;;;;;;;4984011;28;20256;-59
2022/05/30 13:58:44;;;;;;;1.35;0.50;;;;;;;;;;4983775;28;20209;-58
2022/05/30 14:01:14;;;;;;;1.63;1.52;;;;;;;;;;4985007;28;20332;-61
2022/05/30 14:03:43;;;;;;;0.70;0.70;;;;;;;;;;4974090;28;20229;-59
2022/05/30 14:06:19;;;;;;;1.40;0.75;;;;;;;;;;4983701;28;20320;-59
2022/05/30 14:08:46;;;;;;;0.50;0.50;;;;;;;;;;4975591;28;20229;-58
2022/05/30 14:11:13;;;;;;;0.60;0.40;;;;;;;;;;4984912;28;20206;-59
2022/05/30 14:13:52;;;;;;;0.93;0.60;;;;;;;;;;4983637;28;20217;-62
2022/05/30 14:16:30;;;;;;;0.65;0.65;;;;;;;;;;4980490;28;20212;-59
2022/05/30 14:18:57;;;;;;;0.75;0.60;;;;;;;;;;4984380;28;20205;-59
2022/05/30 14:21:26;;;;;;;1.27;0.52;;;;;;;;;;4984005;28;20306;-59
2022/05/30 14:23:54;;;;;;;0.43;0.43;;;;;;;;;;4983732;28;20209;-59
2022/05/30 14:26:30;;;;;;;0.50;0.50;;;;;;;;;;4983734;28;20248;-59
2022/05/30 14:29:00;;;;;;;0.70;0.70;;;;;;;;;;4975268;28;20244;-59
2022/05/30 14:31:30;;;;;;;0.68;0.60;;;;;;;;;;4969787;28;20257;-60
2022/05/30 14:34:03;;;;;;;0.50;0.50;;;;;;;;;;4982259;28;20213;-59
2022/05/30 14:36:41;;;;;;;0.65;0.43;;;;;;;;;;4983289;28;20747;-59
2022/05/30 14:39:17;;;;;;;0.70;0.70;;;;;;;;;;4983817;28;20213;-59
2022/05/30 14:41:55;;;;;;;0.85;0.70;;;;;;;;;;4983463;28;20217;-59
2022/05/30 14:44:23;;;;;;;0.40;0.40;;;;;;;;;;4983683;28;20453;-58
2022/05/30 14:46:51;;;;;;;0.63;0.60;;;;;;;;;;4983944;28;20214;-60
2022/05/30 14:49:22;;;;;;;0.50;0.50;;;;;;;;;;4977259;28;20237;-60
2022/05/30 14:51:53;;;;;;;1.20;0.63;;;;;;;;;;4987507;28;20205;-60
2022/05/30 14:54:26;;;;;;;1.10;0.75;;;;;;;;;;4987972;28;20224;-60
2022/05/30 14:56:53;;;;;;;0.60;0.60;;;;;;;;;;4988015;28;20220;-60
2022/05/30 14:59:28;;;;;;;0.60;0.60;;;;;;;;;;4987643;28;20210;-60
2022/05/30 15:01:57;;;;;;;0.52;0.52;;;;;;;;;;4987056;28;20201;-60
2022/05/30 15:04:23;;;;;;;0.40;0.40;;;;;;;;;;4989657;28;20212;-59
2022/05/30 15:06:56;;;;;;;0.40;0.40;;;;;;;;;;4991988;28;20220;-59
2022/05/30 15:09:24;;;;;;;0.75;0.63;;;;;;;;;;4991584;28;20236;-60
2022/05/30 15:11:51;;;;;;;0.68;0.68;;;;;;;;;;4991157;28;20221;-59
2022/05/30 15:14:20;;;;;;;0.75;0.75;;;;;;;;;;4991375;28;20205;-60
2022/05/30 15:16:47;;;;;;;0.60;0.60;;;;;;;;;;4991771;28;20218;-58
2022/05/30 15:19:16;;;;;;;0.60;0.60;;;;;;;;;;4991236;28;20224;-57
2022/05/30 15:21:44;;;;;;;0.60;0.55;;;;;;;;;;4991149;28;20218;-58